Time;durP1;ratioP1;P1;durP2;ratioP2;P2;SDS_P1;SDS_P2;PMS_P1;PMS_P2;Temp;Humidity;BMP_temperature;BMP_pressure;BME280_temperature;BME280_humidity;BME280_pressure;Samples;Min_cycle;Max_cycle;Signal;HPM_P1;HPM_P2
2023/07/05 00:00:28;;;;;;;;;;;18.80;99.90;;;;;;5066699;28;19943;-69
2023/07/05 00:02:55;;;;;;;;;;;18.70;99.90;;;;;;5067229;28;19921;-69
2023/07/05 00:05:22;;;;;;;;;;;18.70;99.90;;;;;;5067125;28;19921;-70
2023/07/05 00:07:48;;;;;;;;;;;18.50;99.90;;;;;;5066957;28;19988;-70
2023/07/05 00:10:15;;;;;;;;;;;18.40;99.90;;;;;;5067291;28;20115;-70
2023/07/05 00:12:43;;;;;;;;;;;18.30;99.90;;;;;;5067043;28;19984;-69
2023/07/05 00:15:10;;;;;;;;;;;18.20;99.90;;;;;;5067023;28;20116;-70
2023/07/05 00:17:37;;;;;;;;;;;18.10;99.90;;;;;;5067097;28;19927;-69
2023/07/05 00:20:05;;;;;;;;;;;18.00;99.90;;;;;;5067030;28;20454;-69
2023/07/05 00:22:31;;;;;;;;;;;18.00;99.90;;;;;;5066594;28;19928;-70
2023/07/05 00:24:58;;;;;;;;;;;17.90;99.90;;;;;;5066993;28;19920;-71
2023/07/05 00:27:26;;;;;;;;;;;17.80;99.90;;;;;;5066473;28;19980;-70
2023/07/05 00:30:00;;;;;;;;;;;17.80;99.90;;;;;;5066075;28;19988;-69
2023/07/05 00:32:27;;;;;;;;;;;17.70;99.90;;;;;;5066256;28;19922;-70
2023/07/05 00:34:54;;;;;;;;;;;17.70;99.90;;;;;;5066691;28;19992;-70
2023/07/05 00:37:20;;;;;;;;;;;17.70;99.90;;;;;;5066466;28;20149;-70
2023/07/05 00:39:47;;;;;;;;;;;17.60;99.90;;;;;;5066752;28;19932;-70
2023/07/05 00:42:13;;;;;;;;;;;17.60;99.90;;;;;;5066699;28;19927;-70
2023/07/05 00:44:40;;;;;;;;;;;17.60;99.90;;;;;;5066414;28;19988;-70
2023/07/05 00:47:12;;;;;;;;;;;17.60;99.90;;;;;;5066484;28;19920;-70
2023/07/05 00:49:39;;;;;;;;;;;17.60;99.90;;;;;;5066592;28;19979;-71
2023/07/05 00:52:08;;;;;;;;;;;17.60;99.90;;;;;;5056835;28;19922;-71
2023/07/05 00:54:36;;;;;;;;;;;17.60;99.90;;;;;;5046167;28;19921;-70
2023/07/05 00:57:06;;;;;;;;;;;17.50;99.90;;;;;;5046199;28;19927;-69
2023/07/05 00:59:40;;;;;;;;;;;17.40;99.90;;;;;;5045276;28;20328;-70
2023/07/05 01:02:08;;;;;;;;;;;17.30;99.90;;;;;;5045143;28;20220;-69
2023/07/05 01:04:35;;;;;;;;;;;17.30;99.90;;;;;;5045834;28;20227;-69
2023/07/05 01:07:02;;;;;;;;;;;17.20;99.90;;;;;;5045970;28;20116;-69
2023/07/05 01:09:29;;;;;;;;;;;17.20;99.90;;;;;;5045688;28;20224;-70
2023/07/05 01:12:01;;;;;;;;;;;17.20;99.90;;;;;;5045915;28;20051;-69
2023/07/05 01:14:31;;;;;;;;;;;17.20;99.90;;;;;;5045542;28;19929;-69
2023/07/05 01:17:06;;;;;;;;;;;17.20;99.90;;;;;;5045969;28;20171;-70
2023/07/05 01:19:48;;;;;;;;;;;17.20;99.90;;;;;;5045662;28;19921;-70
2023/07/05 01:22:18;;;;;;;;;;;17.10;99.90;;;;;;5045481;28;19928;-70
2023/07/05 01:24:55;;;;;;;;;;;17.10;99.90;;;;;;5045872;28;20200;-70
2023/07/05 01:27:41;;;;;;;;;;;17.10;99.90;;;;;;5045530;28;20183;-69
2023/07/05 01:30:25;;;;;;;;;;;17.10;99.90;;;;;;5045805;28;19921;-70
2023/07/05 01:32:55;;;;;;;;;;;17.10;99.90;;;;;;5055005;28;20211;-70
2023/07/05 01:35:24;;;;;;;;;;;17.10;99.90;;;;;;5065540;28;19971;-70
2023/07/05 01:37:51;;;;;;;;;;;17.00;99.90;;;;;;5065414;28;19927;-70
2023/07/05 01:40:33;;;;;;;;;;;16.90;99.90;;;;;;5065659;28;20147;-69
2023/07/05 01:43:01;;;;;;;;;;;16.90;99.90;;;;;;5064277;28;19921;-70
2023/07/05 01:45:32;;;;;;;;;;;16.90;99.90;;;;;;5065522;28;19920;-69
2023/07/05 01:48:04;;;;;;;;;;;17.00;99.90;;;;;;5065246;28;19927;-69
2023/07/05 01:50:34;;;;;;;;;;;17.00;99.90;;;;;;5065014;28;20212;-71
2023/07/05 01:53:03;;;;;;;;;;;17.10;99.90;;;;;;5063199;28;19920;-69
2023/07/05 01:55:32;;;;;;;;;;;17.10;99.90;;;;;;5064815;28;19920;-70
2023/07/05 01:58:02;;;;;;;;;;;17.10;99.90;;;;;;5064839;28;19980;-70
2023/07/05 02:00:31;;;;;;;;;;;17.20;99.90;;;;;;5064113;28;19920;-69
2023/07/05 02:03:01;;;;;;;;;;;17.20;99.90;;;;;;5064478;28;19927;-69
2023/07/05 02:05:29;;;;;;;;;;;17.20;99.90;;;;;;5064667;28;19928;-70
2023/07/05 02:07:57;;;;;;;;;;;17.20;99.90;;;;;;5064745;28;19988;-70
2023/07/05 02:10:24;;;;;;;;;;;17.20;99.90;;;;;;5065006;28;19927;-69
2023/07/05 02:12:51;;;;;;;;;;;17.20;99.90;;;;;;5063570;28;19920;-69
2023/07/05 02:15:18;;;;;;;;;;;17.20;99.90;;;;;;5064480;28;19921;-70
2023/07/05 02:17:44;;;;;;;;;;;17.20;99.90;;;;;;5064774;28;19927;-69
2023/07/05 02:20:12;;;;;;;;;;;17.30;99.90;;;;;;5064755;28;20011;-70
2023/07/05 02:22:40;;;;;;;;;;;17.20;99.90;;;;;;5063988;28;19927;-70
2023/07/05 02:25:07;;;;;;;;;;;17.20;99.90;;;;;;5064595;28;19927;-70
2023/07/05 02:27:34;;;;;;;;;;;17.20;99.90;;;;;;5044450;28;19928;-69
2023/07/05 02:30:01;;;;;;;;;;;17.20;99.90;;;;;;5061865;28;19952;-71
2023/07/05 02:32:28;;;;;;;;;;;17.20;99.90;;;;;;5063577;28;19987;-69
2023/07/05 02:34:54;;;;;;;;;;;17.20;99.90;;;;;;5064376;28;19995;-70
2023/07/05 02:37:21;;;;;;;;;;;17.20;99.90;;;;;;5064036;28;19983;-69
2023/07/05 02:39:54;;;;;;;;;;;17.20;99.90;;;;;;5064410;28;20105;-69
2023/07/05 02:42:21;;;;;;;;;;;17.20;99.90;;;;;;5064048;28;19924;-69
2023/07/05 02:44:47;;;;;;;;;;;17.20;99.90;;;;;;5064282;28;19928;-69
2023/07/05 02:47:14;;;;;;;;;;;17.30;99.90;;;;;;5063883;28;19921;-70
2023/07/05 02:49:41;;;;;;;;;;;17.30;99.90;;;;;;5063943;28;20141;-69
2023/07/05 02:52:07;;;;;;;;;;;17.30;99.90;;;;;;5063801;28;19980;-70
2023/07/05 02:54:34;;;;;;;;;;;17.30;99.90;;;;;;5063439;28;19991;-70
2023/07/05 02:57:02;;;;;;;;;;;17.30;99.90;;;;;;5063676;28;19984;-70
2023/07/05 02:59:28;;;;;;;;;;;17.40;99.90;;;;;;5063937;28;19983;-71
2023/07/05 03:01:55;;;;;;;;;;;17.40;99.90;;;;;;5063492;28;19927;-70
2023/07/05 03:04:21;;;;;;;;;;;17.40;99.90;;;;;;5063838;28;19942;-70
2023/07/05 03:06:48;;;;;;;;;;;17.40;99.90;;;;;;5063967;28;19992;-70
2023/07/05 03:09:15;;;;;;;;;;;17.40;99.90;;;;;;5063849;28;19932;-69
2023/07/05 03:11:42;;;;;;;;;;;17.40;99.90;;;;;;5063757;28;19927;-69
2023/07/05 03:14:10;;;;;;;;;;;17.40;99.90;;;;;;5063814;28;19921;-70
2023/07/05 03:16:37;;;;;;;;;;;17.40;99.90;;;;;;5063785;28;20244;-70
2023/07/05 03:19:03;;;;;;;;;;;17.50;99.90;;;;;;5063582;28;20200;-70
2023/07/05 03:21:30;;;;;;;;;;;17.50;99.90;;;;;;5063790;28;19984;-70
2023/07/05 03:23:57;;;;;;;;;;;17.50;99.90;;;;;;5063195;28;19987;-70
2023/07/05 03:26:23;;;;;;;;;;;17.50;99.90;;;;;;5063532;28;20259;-70
2023/07/05 03:28:51;;;;;;;;;;;17.50;99.90;;;;;;5063689;28;19987;-70
2023/07/05 03:31:19;;;;;;;;;;;17.50;99.90;;;;;;5063695;28;19959;-71
2023/07/05 03:33:45;;;;;;;;;;;17.50;99.90;;;;;;5063171;28;19925;-70
2023/07/05 03:36:13;;;;;;;;;;;17.50;99.90;;;;;;5063631;28;19980;-69
2023/07/05 03:38:40;;;;;;;;;;;17.50;99.90;;;;;;5063219;28;19979;-69
2023/07/05 03:41:08;;;;;;;;;;;17.50;99.90;;;;;;5063652;28;19921;-69
2023/07/05 03:43:36;;;;;;;;;;;17.50;99.90;;;;;;5063080;28;19921;-70
2023/07/05 03:46:03;;;;;;;;;;;17.40;99.90;;;;;;5063534;28;19947;-70
2023/07/05 03:48:32;;;;;;;;;;;17.40;99.90;;;;;;5063431;28;19920;-70
2023/07/05 03:50:59;;;;;;;;;;;17.40;99.90;;;;;;5063122;28;19988;-69
2023/07/05 03:53:27;;;;;;;;;;;17.40;99.90;;;;;;5063198;28;19920;-70
2023/07/05 03:55:53;;;;;;;;;;;17.30;99.90;;;;;;5063153;28;20340;-69
2023/07/05 03:58:20;;;;;;;;;;;17.30;99.90;;;;;;5063206;28;20208;-69
2023/07/05 04:00:47;;;;;;;;;;;17.20;99.90;;;;;;5063075;28;19927;-69
2023/07/05 04:03:14;;;;;;;;;;;17.20;99.90;;;;;;5062956;28;19987;-69
2023/07/05 04:05:42;;;;;;;;;;;17.20;99.90;;;;;;5063410;28;19927;-69
2023/07/05 04:08:09;;;;;;;;;;;17.20;99.90;;;;;;5063065;28;20226;-69
2023/07/05 04:10:35;;;;;;;;;;;17.20;99.90;;;;;;5063349;28;19991;-69
2023/07/05 04:13:02;;;;;;;;;;;17.10;99.90;;;;;;5063037;28;19980;-69
2023/07/05 04:15:28;;;;;;;;;;;16.90;99.90;;;;;;5063178;28;19927;-69
2023/07/05 04:17:55;;;;;;;;;;;16.90;99.90;;;;;;5063087;28;20000;-68
2023/07/05 04:20:21;;;;;;;;;;;16.80;99.90;;;;;;5063309;28;19927;-69
2023/07/05 04:22:49;;;;;;;;;;;16.90;99.90;;;;;;5063103;28;20054;-69
2023/07/05 04:25:16;;;;;;;;;;;16.80;99.90;;;;;;5063015;28;20204;-69
2023/07/05 04:27:43;;;;;;;;;;;16.80;99.90;;;;;;5062321;22;19921;-69
2023/07/05 04:30:10;;;;;;;;;;;16.80;99.90;;;;;;5027337;28;19984;-69
2023/07/05 04:32:37;;;;;;;;;;;16.80;99.90;;;;;;5034743;28;20119;-69
2023/07/05 04:35:04;;;;;;;;;;;16.80;99.90;;;;;;5023310;28;19921;-69
2023/07/05 04:37:31;;;;;;;;;;;16.80;99.90;;;;;;5026083;28;20294;-68
2023/07/05 04:39:58;;;;;;;;;;;16.80;99.90;;;;;;5026589;28;20213;-69
2023/07/05 04:42:25;;;;;;;;;;;16.80;99.90;;;;;;5026294;28;19941;-69
2023/07/05 04:44:52;;;;;;;;;;;16.80;99.90;;;;;;5026684;28;19921;-69
2023/07/05 04:47:18;;;;;;;;;;;16.80;99.90;;;;;;5026566;28;19927;-69
2023/07/05 04:49:46;;;;;;;;;;;16.90;99.90;;;;;;5026242;28;19988;-69
2023/07/05 04:52:13;;;;;;;;;;;16.90;99.90;;;;;;5016249;28;19948;-68
2023/07/05 04:54:40;;;;;;;;;;;16.90;99.90;;;;;;5022364;28;19992;-69
2023/07/05 04:57:08;;;;;;;;;;;16.90;99.90;;;;;;5045738;28;19992;-68
2023/07/05 04:59:34;;;;;;;;;;;16.90;99.90;;;;;;5046166;28;19925;-68
2023/07/05 05:02:02;;;;;;;;;;;16.90;99.90;;;;;;5046112;28;20157;-69
2023/07/05 05:04:29;;;;;;;;;;;16.90;99.90;;;;;;5046182;28;20147;-68
2023/07/05 05:06:56;;;;;;;;;;;16.90;99.90;;;;;;5045370;28;19983;-69
2023/07/05 05:14:28;;;;;;;;;;;16.90;99.90;;;;;;5063031;28;19927;-71
2023/07/05 05:16:54;;;;;;;;;;;16.90;99.90;;;;;;5065284;28;20016;-72
2023/07/05 05:19:21;;;;;;;;;;;16.90;99.90;;;;;;5065964;28;20234;-72
2023/07/05 05:21:48;;;;;;;;;;;16.90;99.90;;;;;;5065107;28;19920;-73
2023/07/05 05:24:14;;;;;;;;;;;16.90;99.90;;;;;;5064818;28;19921;-73
2023/07/05 05:26:41;;;;;;;;;;;16.90;99.90;;;;;;5065975;28;19921;-72
2023/07/05 05:29:08;;;;;;;;;;;16.90;99.90;;;;;;5066025;28;19988;-74
2023/07/05 05:31:37;;;;;;;;;;;16.90;99.90;;;;;;5065615;28;19996;-70
2023/07/05 05:34:04;;;;;;;;;;;16.90;99.90;;;;;;5065764;28;19940;-73
2023/07/05 05:36:30;;;;;;;;;;;16.90;99.90;;;;;;5065712;28;20251;-73
2023/07/05 05:38:57;;;;;;;;;;;16.90;99.90;;;;;;5065663;28;19955;-73
2023/07/05 05:41:32;;;;;;;;;;;16.90;99.90;;;;;;5064869;28;20119;-73
2023/07/05 05:43:58;;;;;;;;;;;16.90;99.90;;;;;;5065802;28;19921;-73
2023/07/05 05:46:25;;;;;;;;;;;17.00;99.90;;;;;;5065804;28;20171;-73
2023/07/05 05:48:53;;;;;;;;;;;17.00;99.90;;;;;;5065228;28;20204;-73
2023/07/05 05:51:20;;;;;;;;;;;17.00;99.90;;;;;;5065405;28;19920;-73
2023/07/05 05:53:46;;;;;;;;;;;17.00;99.90;;;;;;5065687;28;19940;-73
2023/07/05 05:56:13;;;;;;;;;;;17.10;99.90;;;;;;5065270;28;20144;-73
2023/07/05 05:58:39;;;;;;;;;;;17.00;99.90;;;;;;5065203;28;20235;-73
2023/07/05 06:01:06;;;;;;;;;;;17.10;99.90;;;;;;5065181;28;19952;-73
2023/07/05 06:03:33;;;;;;;;;;;17.10;99.90;;;;;;5065108;28;20212;-74
2023/07/05 06:06:01;;;;;;;;;;;17.20;99.90;;;;;;5064915;28;19987;-74
2023/07/05 06:08:28;;;;;;;;;;;17.20;99.90;;;;;;5065292;28;19921;-73
2023/07/05 06:10:55;;;;;;;;;;;17.30;99.90;;;;;;5064901;28;19924;-74
2023/07/05 06:13:22;;;;;;;;;;;17.30;99.90;;;;;;5064810;28;20089;-74
2023/07/05 06:15:53;;;;;;;;;;;17.30;99.90;;;;;;5065136;28;20093;-73
2023/07/05 06:18:20;;;;;;;;;;;17.30;99.90;;;;;;5065336;28;19927;-74
2023/07/05 06:20:47;;;;;;;;;;;17.40;99.90;;;;;;5064897;28;19920;-73
2023/07/05 06:23:15;;;;;;;;;;;17.30;99.90;;;;;;5065042;28;20095;-74
2023/07/05 06:25:41;;;;;;;;;;;17.30;99.90;;;;;;5064917;28;20185;-75
2023/07/05 06:28:08;;;;;;;;;;;17.30;99.90;;;;;;5055631;28;19988;-76
2023/07/05 06:30:37;;;;;;;;;;;17.40;99.90;;;;;;5044118;28;19971;-74
2023/07/05 06:33:04;;;;;;;;;;;17.40;99.90;;;;;;5049598;28;19928;-74
2023/07/05 06:35:32;;;;;;;;;;;17.40;99.90;;;;;;5063926;28;20112;-74
2023/07/05 06:37:58;;;;;;;;;;;17.50;99.90;;;;;;5064614;28;20179;-73
2023/07/05 06:40:26;;;;;;;;;;;17.50;99.90;;;;;;5063248;28;19920;-73
2023/07/05 06:42:53;;;;;;;;;;;17.60;99.90;;;;;;5064369;28;20204;-73
2023/07/05 06:45:20;;;;;;;;;;;17.70;99.90;;;;;;5064436;28;19988;-72
2023/07/05 06:47:46;;;;;;;;;;;17.80;99.90;;;;;;5064230;28;20242;-73
2023/07/05 06:50:13;;;;;;;;;;;17.80;99.90;;;;;;5064292;28;19943;-73
2023/07/05 06:52:40;;;;;;;;;;;17.90;99.90;;;;;;5064329;28;19988;-73
2023/07/05 06:55:07;;;;;;;;;;;17.90;99.90;;;;;;5056933;28;19928;-73
2023/07/05 06:57:35;;;;;;;;;;;18.00;99.90;;;;;;5064462;28;19921;-72
2023/07/05 07:00:01;;;;;;;;;;;18.00;99.90;;;;;;5063242;28;20222;-74
2023/07/05 07:02:28;;;;;;;;;;;18.10;99.90;;;;;;5049330;28;19921;-72
2023/07/05 07:04:55;;;;;;;;;;;18.20;99.90;;;;;;5044361;28;19964;-72
2023/07/05 07:07:22;;;;;;;;;;;18.20;99.90;;;;;;5044089;28;19921;-71
2023/07/05 07:09:57;;;;;;;;;;;18.30;99.90;;;;;;5062100;28;19983;-72
2023/07/05 07:12:24;;;;;;;;;;;18.40;99.90;;;;;;5048660;28;19963;-72
2023/07/05 07:14:52;;;;;;;;;;;18.50;99.90;;;;;;5044488;28;19984;-73
2023/07/05 07:17:37;;;;;;;;;;;18.60;99.90;;;;;;5046654;28;19984;-73
2023/07/05 07:20:07;;;;;;;;;;;18.60;99.90;;;;;;5063945;28;19979;-73
2023/07/05 07:22:35;;;;;;;;;;;18.70;99.90;;;;;;5063645;28;19920;-72
2023/07/05 07:25:10;;;;;;;;;;;18.70;99.90;;;;;;5065199;28;19956;-75
2023/07/05 07:27:42;;;;;;;;;;;18.70;99.90;;;;;;5055215;28;19921;-76
2023/07/05 07:30:17;;;;;;;;;;;18.80;99.90;;;;;;5044710;28;19953;-76
2023/07/05 07:32:45;;;;;;;;;;;18.80;99.90;;;;;;5060660;28;19920;-74
2023/07/05 07:35:15;;;;;;;;;;;18.90;99.90;;;;;;5064389;28;20158;-75
2023/07/05 07:37:41;;;;;;;;;;;18.90;99.90;;;;;;5063862;28;19944;-72
2023/07/05 07:40:08;;;;;;;;;;;18.90;99.90;;;;;;5064103;28;19959;-74
2023/07/05 07:42:35;;;;;;;;;;;18.90;99.90;;;;;;5064053;28;19962;-73
2023/07/05 07:45:02;;;;;;;;;;;19.00;99.90;;;;;;5063588;28;19972;-72
2023/07/05 07:47:30;;;;;;;;;;;19.10;99.90;;;;;;5063708;28;19956;-73
2023/07/05 07:50:05;;;;;;;;;;;19.10;99.90;;;;;;5063174;28;19952;-74
2023/07/05 07:52:32;;;;;;;;;;;19.00;99.90;;;;;;5063084;28;19984;-73
2023/07/05 07:54:59;;;;;;;;;;;18.90;99.90;;;;;;5063749;28;19951;-73
2023/07/05 07:57:25;;;;;;;;;;;18.80;99.90;;;;;;5063662;28;19921;-73
2023/07/05 07:59:52;;;;;;;;;;;18.70;99.90;;;;;;5063704;28;20224;-73
2023/07/05 08:02:19;;;;;;;;;;;18.60;99.90;;;;;;5063592;28;19956;-72
2023/07/05 08:05:05;;;;;;;;;;;18.50;99.90;;;;;;5062930;28;19921;-74
2023/07/05 08:07:32;;;;;;;;;;;18.50;99.90;;;;;;5061130;28;19921;-72
2023/07/05 08:09:58;;;;;;;;;;;18.40;99.90;;;;;;5063934;28;20091;-73
2023/07/05 08:12:25;;;;;;;;;;;18.30;99.90;;;;;;5067176;28;19956;-70
2023/07/05 08:14:51;;;;;;;;;;;18.20;99.90;;;;;;5067627;28;19963;-76
2023/07/05 08:17:20;;;;;;;;;;;18.00;99.90;;;;;;5067656;28;19966;-74
2023/07/05 08:19:46;;;;;;;;;;;17.90;99.90;;;;;;5067671;28;19925;-76
2023/07/05 08:22:14;;;;;;;;;;;17.80;99.90;;;;;;5066705;28;19947;-75
2023/07/05 08:24:41;;;;;;;;;;;17.70;99.90;;;;;;5067555;28;19987;-76
2023/07/05 08:27:07;;;;;;;;;;;17.70;99.90;;;;;;5067736;28;19983;-77
2023/07/05 08:29:34;;;;;;;;;;;17.60;99.90;;;;;;5067177;28;20235;-76
2023/07/05 08:32:01;;;;;;;;;;;17.60;99.90;;;;;;5067257;28;19987;-76
2023/07/05 08:34:30;;;;;;;;;;;17.60;99.90;;;;;;5066420;28;19956;-76
2023/07/05 08:36:57;;;;;;;;;;;17.50;99.90;;;;;;5060825;28;19921;-76
2023/07/05 08:39:25;;;;;;;;;;;17.50;99.90;;;;;;5066449;28;19956;-76
2023/07/05 08:42:16;;;;;;;;;;;17.50;99.90;;;;;;5066761;28;20135;-76
2023/07/05 08:44:51;;;;;;;;;;;17.50;99.90;;;;;;5041891;28;19991;-76
2023/07/05 08:47:20;;;;;;;;;;;17.40;99.90;;;;;;5065916;28;19927;-76
2023/07/05 08:49:49;;;;;;;;;;;17.40;99.90;;;;;;5066937;28;19921;-76
2023/07/05 08:52:21;;;;;;;;;;;17.40;99.90;;;;;;5065902;28;19921;-76
2023/07/05 08:54:51;;;;;;;;;;;17.30;99.90;;;;;;5066841;28;19927;-76
2023/07/05 08:57:23;;;;;;;;;;;17.30;99.90;;;;;;5066889;28;19927;-76
2023/07/05 08:59:53;;;;;;;;;;;17.20;99.90;;;;;;5066374;28;20137;-75
2023/07/05 09:02:22;;;;;;;;;;;17.20;99.90;;;;;;5066461;28;20018;-74
2023/07/05 09:04:49;;;;;;;;;;;17.20;99.90;;;;;;5066306;28;19956;-74
2023/07/05 09:07:21;;;;;;;;;;;17.10;99.90;;;;;;5066346;28;19920;-74
2023/07/05 09:10:04;;;;;;;;;;;17.00;99.90;;;;;;5066025;28;20155;-74
2023/07/05 09:12:34;;;;;;;;;;;17.10;99.90;;;;;;5066331;28;19921;-75
2023/07/05 09:15:14;;;;;;;;;;;17.00;99.90;;;;;;5066110;28;19920;-75
2023/07/05 09:17:48;;;;;;;;;;;17.10;99.90;;;;;;5048491;28;20000;-74
2023/07/05 09:20:20;;;;;;;;;;;17.20;99.90;;;;;;5056461;28;20145;-74
2023/07/05 09:22:47;;;;;;;;;;;17.40;99.90;;;;;;5060342;28;19928;-74
2023/07/05 09:25:17;;;;;;;;;;;17.50;99.90;;;;;;5062268;28;19925;-74
2023/07/05 09:27:49;;;;;;;;;;;17.60;99.90;;;;;;5065660;28;19927;-74
2023/07/05 09:30:19;;;;;;;;;;;17.60;99.90;;;;;;5065807;28;19920;-74
2023/07/05 09:32:47;;;;;;;;;;;17.70;99.90;;;;;;5065605;28;19927;-74
2023/07/05 09:35:14;;;;;;;;;;;17.80;99.90;;;;;;5065840;28;19921;-74
2023/07/05 09:37:42;;;;;;;;;;;18.00;99.90;;;;;;5065742;28;19929;-74
2023/07/05 09:40:15;;;;;;;;;;;18.20;99.90;;;;;;5065400;28;20170;-74
2023/07/05 09:42:45;;;;;;;;;;;18.40;99.90;;;;;;5065706;28;19999;-74
2023/07/05 09:45:12;;;;;;;;;;;18.60;99.90;;;;;;5066144;28;19988;-74
2023/07/05 09:47:39;;;;;;;;;;;18.80;99.90;;;;;;5065976;28;19991;-74
2023/07/05 09:50:13;;;;;;;;;;;18.90;99.90;;;;;;5066148;28;19996;-74
2023/07/05 09:52:40;;;;;;;;;;;19.00;99.90;;;;;;5065684;28;19962;-74
2023/07/05 09:55:12;;;;;;;;;;;19.00;99.90;;;;;;5065527;28;19920;-73
2023/07/05 09:57:38;;;;;;;;;;;19.00;99.90;;;;;;5066496;28;19921;-74
2023/07/05 10:00:24;;;;;;;;;;;18.80;99.90;;;;;;5066007;28;19956;-74
2023/07/05 10:02:52;;;;;;;;;;;18.60;99.90;;;;;;5067984;28;19956;-74
2023/07/05 10:05:27;;;;;;;;;;;18.40;99.90;;;;;;5065978;28;19988;-74
2023/07/05 10:07:55;;;;;;;;;;;18.30;99.90;;;;;;5065178;28;19988;-73
2023/07/05 10:10:24;;;;;;;;;;;18.20;99.90;;;;;;5064428;28;19963;-74
2023/07/05 10:12:58;;;;;;;;;;;18.10;99.90;;;;;;5064904;28;19951;-74
2023/07/05 10:15:26;;;;;;;;;;;18.00;99.90;;;;;;5065663;28;19920;-74
2023/07/05 10:17:54;;;;;;;;;;;18.00;99.90;;;;;;5066403;28;19995;-75
2023/07/05 10:20:23;;;;;;;;;;;18.10;99.90;;;;;;5065195;28;20208;-76
2023/07/05 10:22:57;;;;;;;;;;;18.20;99.90;;;;;;5059742;28;19921;-74
2023/07/05 10:25:24;;;;;;;;;;;18.40;99.90;;;;;;5058621;28;20153;-75
2023/07/05 10:27:51;;;;;;;;;;;18.60;99.90;;;;;;5065221;28;19921;-74
2023/07/05 10:30:18;;;;;;;;;;;18.70;99.90;;;;;;5064694;28;19927;-74
2023/07/05 10:32:49;;;;;;;;;;;18.90;99.90;;;;;;5064794;28;19955;-74
2023/07/05 10:35:22;;;;;;;;;;;18.90;99.90;;;;;;5064026;28;19921;-73
2023/07/05 10:37:49;;;;;;;;;;;19.00;99.90;;;;;;5064696;28;19927;-75
2023/07/05 10:40:17;;;;;;;;;;;19.10;99.90;;;;;;5064904;28;20296;-74
2023/07/05 10:42:48;;;;;;;;;;;19.20;99.90;;;;;;5060360;28;19921;-74
2023/07/05 10:45:18;;;;;;;;;;;19.40;99.90;;;;;;5047970;28;19921;-74
2023/07/05 10:47:47;;;;;;;;;;;19.40;99.90;;;;;;5064455;28;19963;-75
2023/07/05 10:50:14;;;;;;;;;;;19.30;99.90;;;;;;5064132;28;19921;-75
2023/07/05 10:52:48;;;;;;;;;;;19.40;99.90;;;;;;5064259;28;19988;-74
2023/07/05 10:55:15;;;;;;;;;;;19.50;99.90;;;;;;5064299;28;20111;-74
2023/07/05 10:58:04;;;;;;;;;;;19.60;99.90;;;;;;5063776;28;20169;-75
2023/07/05 11:00:37;;;;;;;;;;;19.80;99.90;;;;;;5063607;28;19956;-76
2023/07/05 11:03:10;;;;;;;;;;;20.00;99.90;;;;;;5060143;28;19921;-75
2023/07/05 11:05:44;;;;;;;;;;;20.30;99.90;;;;;;5064369;28;19944;-74
2023/07/05 11:08:16;;;;;;;;;;;20.40;99.90;;;;;;5064009;28;19927;-75
2023/07/05 11:10:43;;;;;;;;;;;20.50;99.90;;;;;;5053617;28;19921;-74
2023/07/05 11:13:13;;;;;;;;;;;20.50;99.90;;;;;;5043661;28;19921;-74
2023/07/05 11:15:40;;;;;;;;;;;20.60;99.90;;;;;;5043701;28;20108;-74
2023/07/05 11:18:10;;;;;;;;;;;20.80;99.90;;;;;;5043578;28;19921;-74
2023/07/05 11:20:44;;;;;;;;;;;20.80;99.90;;;;;;5043587;28;19927;-74
2023/07/05 11:23:12;;;;;;;;;;;20.90;99.90;;;;;;5051408;28;20108;-74
2023/07/05 11:26:00;;;;;;;;;;;21.00;99.90;;;;;;5062385;28;20872;-74
2023/07/05 11:28:31;;;;;;;;;;;21.00;99.90;;;;;;5064106;28;19984;-75
2023/07/05 11:30:57;;;;;;;;;;;21.20;99.90;;;;;;5063266;28;19920;-74
2023/07/05 11:33:25;;;;;;;;;;;21.20;99.90;;;;;;5063671;28;19988;-74
2023/07/05 11:35:55;;;;;;;;;;;21.50;99.90;;;;;;5063475;28;19920;-74
2023/07/05 11:38:40;;;;;;;;;;;21.70;99.90;;;;;;5063300;28;19921;-74
2023/07/05 11:41:07;;;;;;;;;;;21.80;99.90;;;;;;5044556;28;20160;-72
2023/07/05 11:43:36;;;;;;;;;;;21.80;99.90;;;;;;5061799;28;19927;-73
2023/07/05 11:46:03;;;;;;;;;;;21.90;99.90;;;;;;5066999;28;19924;-74
2023/07/05 11:48:41;;;;;;;;;;;22.00;99.90;;;;;;5081847;28;19976;-75
2023/07/05 11:51:26;;;;;;;;;;;22.20;99.90;;;;;;5073419;28;20298;-75
2023/07/05 11:53:54;;;;;;;;;;;22.40;99.90;;;;;;5076780;28;20111;-75
2023/07/05 11:56:21;;;;;;;;;;;22.70;99.90;;;;;;5059520;28;19957;-75
2023/07/05 11:58:51;;;;;;;;;;;22.90;99.90;;;;;;5056836;28;19921;-74
2023/07/05 12:01:22;;;;;;;;;;;23.00;99.90;;;;;;5068685;28;20161;-75
2023/07/05 12:03:58;;;;;;;;;;;23.10;99.90;;;;;;5065453;28;19983;-76
2023/07/05 12:06:27;;;;;;;;;;;23.30;99.90;;;;;;5070152;28;19934;-75
2023/07/05 12:08:55;;;;;;;;;;;23.10;99.90;;;;;;5070040;28;20120;-76
2023/07/05 12:11:28;;;;;;;;;;;22.90;99.90;;;;;;5066468;28;19921;-76
2023/07/05 12:14:00;;;;;;;;;;;22.90;99.90;;;;;;5070715;28;19927;-75
2023/07/05 12:16:28;;;;;;;;;;;23.00;99.90;;;;;;5064360;28;19952;-75
2023/07/05 12:18:56;;;;;;;;;;;23.10;99.90;;;;;;5070221;28;19963;-75
2023/07/05 12:21:22;;;;;;;;;;;23.10;99.90;;;;;;5069020;28;19924;-76
2023/07/05 12:23:51;;;;;;;;;;;23.00;99.90;;;;;;5074654;28;19927;-76
2023/07/05 12:26:22;;;;;;;;;;;22.90;99.90;;;;;;5069563;28;19921;-76
2023/07/05 12:28:49;;;;;;;;;;;23.00;99.80;;;;;;5061267;28;20112;-75
2023/07/05 12:31:19;;;;;;;;;;;23.00;97.50;;;;;;5055554;28;19964;-74
2023/07/05 12:33:51;;;;;;;;;;;23.10;97.70;;;;;;5069542;28;19921;-76
2023/07/05 12:36:20;;;;;;;;;;;23.20;96.80;;;;;;5069881;28;19988;-76
2023/07/05 12:38:47;;;;;;;;;;;23.30;96.60;;;;;;5072946;28;19921;-78
2023/07/05 12:41:15;;;;;;;;;;;23.30;96.70;;;;;;5069997;28;19967;-76
2023/07/05 12:43:42;;;;;;;;;;;23.30;96.10;;;;;;5081603;28;19952;-76
2023/07/05 12:46:10;;;;;;;;;;;23.50;96.60;;;;;;5089733;28;20169;-76
2023/07/05 12:48:37;;;;;;;;;;;23.60;95.80;;;;;;5089896;28;19984;-76
2023/07/05 12:51:05;;;;;;;;;;;23.60;96.00;;;;;;5052563;28;19927;-76
2023/07/05 12:53:33;;;;;;;;;;;23.60;98.00;;;;;;5063929;28;19927;-76
2023/07/05 12:56:03;;;;;;;;;;;23.80;99.30;;;;;;5061285;28;19984;-76
2023/07/05 12:58:30;;;;;;;;;;;23.90;95.30;;;;;;5044682;28;19924;-76
2023/07/05 13:00:57;;;;;;;;;;;24.00;95.30;;;;;;5045523;28;20255;-75
2023/07/05 13:03:26;;;;;;;;;;;24.00;96.00;;;;;;5060504;28;19927;-75
2023/07/05 13:05:53;;;;;;;;;;;24.00;96.60;;;;;;5065914;28;19976;-75
2023/07/05 13:08:20;;;;;;;;;;;24.20;97.30;;;;;;5065344;28;19956;-74
2023/07/05 13:10:51;;;;;;;;;;;24.30;96.50;;;;;;5065758;28;19921;-75
2023/07/05 13:13:25;;;;;;;;;;;24.30;96.80;;;;;;5062124;28;19959;-75
2023/07/05 13:15:53;;;;;;;;;;;24.10;95.20;;;;;;5046207;28;19980;-76
2023/07/05 13:18:25;;;;;;;;;;;24.10;95.00;;;;;;5073182;28;19927;-74
2023/07/05 13:21:07;;;;;;;;;;;24.00;95.70;;;;;;5085875;28;20208;-76
2023/07/05 13:23:33;;;;;;;;;;;24.00;95.50;;;;;;5085162;28;20283;-75
2023/07/05 13:26:01;;;;;;;;;;;24.20;96.80;;;;;;5066015;28;19927;-76
2023/07/05 13:28:32;;;;;;;;;;;24.50;96.50;;;;;;5065770;28;19920;-74
2023/07/05 13:31:00;;;;;;;;;;;24.70;96.40;;;;;;5065092;28;19948;-75
2023/07/05 13:33:27;;;;;;;;;;;25.00;96.30;;;;;;5065743;28;19920;-75
2023/07/05 13:35:54;;;;;;;;;;;25.20;96.30;;;;;;5065883;28;19928;-75
2023/07/05 13:38:29;;;;;;;;;;;25.20;95.60;;;;;;5059441;28;19943;-75
2023/07/05 13:40:59;;;;;;;;;;;25.10;95.60;;;;;;5054276;28;19924;-76
2023/07/05 13:43:35;;;;;;;;;;;25.10;95.50;;;;;;5062334;28;19965;-78
2023/07/05 13:46:02;;;;;;;;;;;24.90;96.10;;;;;;5042733;28;19971;-75
2023/07/05 13:48:28;;;;;;;;;;;24.90;96.30;;;;;;5060302;28;19928;-76
2023/07/05 13:50:59;;;;;;;;;;;25.00;96.20;;;;;;5065442;28;19952;-75
2023/07/05 13:53:27;;;;;;;;;;;25.10;96.00;;;;;;5065394;28;19987;-74
2023/07/05 13:55:54;;;;;;;;;;;25.10;95.70;;;;;;5066337;28;19987;-74
2023/07/05 13:58:22;;;;;;;;;;;24.80;91.80;;;;;;5066390;28;19987;-75
2023/07/05 14:00:56;;;;;;;;;;;24.70;91.90;;;;;;5065639;28;20000;-75
2023/07/05 14:03:23;;;;;;;;;;;24.70;92.20;;;;;;5051168;28;20205;-73
2023/07/05 14:05:50;;;;;;;;;;;24.70;92.00;;;;;;5045768;28;20208;-75
2023/07/05 14:08:17;;;;;;;;;;;24.70;92.30;;;;;;5045377;28;19952;-75
2023/07/05 14:13:27;;;;;;;;;;;24.70;93.30;;;;;;5041412;28;19920;-76
2023/07/05 14:15:55;;;;;;;;;;;24.80;93.80;;;;;;5063679;28;20240;-73
2023/07/05 14:18:22;;;;;;;;;;;24.80;93.90;;;;;;5083216;28;19926;-74
2023/07/05 14:20:49;;;;;;;;;;;24.90;93.30;;;;;;5075132;28;20024;-73
2023/07/05 14:23:16;;;;;;;;;;;25.00;92.90;;;;;;5084878;28;19920;-74
2023/07/05 14:25:44;;;;;;;;;;;25.00;92.10;;;;;;5084820;28;19979;-74
2023/07/05 14:28:12;;;;;;;;;;;24.80;92.20;;;;;;5084553;28;20124;-74
2023/07/05 14:30:39;;;;;;;;;;;24.80;92.60;;;;;;5084488;28;19920;-75
2023/07/05 14:33:09;;;;;;;;;;;24.80;92.10;;;;;;5078613;28;20241;-75